KFOE/FOE METAR and TAF weather

Enter ICAO airport designator
Station Type Date Time Source
KFOE METAR 2019/06/16 11:53 UTC NOAA

KFOE 161153Z 00000KT 10SM CLR 21/18 A2986 RMK AO2 SLP101 T02060183 10206 20189 51020


Station Type Date Time Source
KFOE Decoded METAR 2019/06/16 11:53 UTC NOAA

FORBES FIELD, KS, United States (KFOE) 38-56N 95-39W 320M
Jun 16, 2019 - 07:53 AM EDT / 2019.06.16 1153 UTC
Wind: Calm:0
Visibility: 10 mile(s):0
Sky conditions: clear
Temperature: 69.1 F (20.6 C)
Dew Point: 64.9 F (18.3 C)
Relative Humidity: 86%
Pressure (altimeter): 29.86 in. Hg (1011 hPa)
Pressure tendency: 0.06 inches (2.0 hPa) higher than three hours ago
ob: KFOE 161153Z 00000KT 10SM CLR 21/18 A2986 RMK AO2 SLP101 T02060183 10206 20189 51020
cycle: 12

Station Type Date Time Source
KFOE TAF 2019/06/16 12:24 UTC NOAA

TAF KFOE 161121Z 1612/1712 36007KT P6SM SCT250

Example: see airport list